createdAt,value
2019-01-25T00:00:57.164Z,63.50
2019-01-25T00:02:01.180Z,53.85
2019-01-25T00:03:10.321Z,66.82
2019-01-25T00:04:12.962Z,53.48
2019-01-25T00:05:17.223Z,51.92
2019-01-25T00:06:21.261Z,54.25
2019-01-25T00:07:25.565Z,56.60
2019-01-25T00:08:29.582Z,57.88
2019-01-25T00:09:33.595Z,53.05
2019-01-25T00:10:37.691Z,49.25
2019-01-25T00:11:42.092Z,50.73
2019-01-25T00:12:46.115Z,48.98
2019-01-25T00:13:50.126Z,48.00
2019-01-25T00:14:54.179Z,48.20
2019-01-25T00:15:58.201Z,48.55
2019-01-25T00:17:02.248Z,48.33
2019-01-25T00:18:06.797Z,50.20
2019-01-25T00:19:10.748Z,48.45
2019-01-25T00:20:14.881Z,49.85
2019-01-25T00:21:19.216Z,49.40
2019-01-25T00:22:23.162Z,49.73
2019-01-25T00:23:27.184Z,48.85
2019-01-25T00:24:31.525Z,48.17
2019-01-25T00:25:35.544Z,49.53
2019-01-25T00:26:39.833Z,49.48
2019-01-25T00:27:43.858Z,48.58
2019-01-25T00:28:47.829Z,48.70
2019-01-25T00:29:51.950Z,46.13
2019-01-25T00:30:55.968Z,45.15
2019-01-25T00:32:00.000Z,47.67
2019-01-25T00:33:04.358Z,47.78
2019-01-25T00:34:08.237Z,47.27
2019-01-25T00:35:12.454Z,48.87
2019-01-25T00:36:16.490Z,46.90
2019-01-25T00:37:20.566Z,49.50
2019-01-25T00:38:24.681Z,48.52
2019-01-25T00:39:28.686Z,48.87
2019-01-25T00:40:32.786Z,49.58
2019-01-25T00:41:36.801Z,50.17
2019-01-25T00:42:40.926Z,48.38
2019-01-25T00:43:44.869Z,47.58
2019-01-25T00:44:48.863Z,48.92
2019-01-25T00:45:52.882Z,49.20
2019-01-25T00:46:56.895Z,49.63
2019-01-25T00:48:00.918Z,50.92
2019-01-25T00:49:05.748Z,50.08
2019-01-25T00:50:15.844Z,50.28
2019-01-25T00:51:19.788Z,51.00
2019-01-25T00:52:24.154Z,50.83
2019-01-25T00:53:28.406Z,50.15
2019-01-25T00:54:32.655Z,48.15
2019-01-25T00:55:36.736Z,47.95
2019-01-25T00:56:40.754Z,49.13
2019-01-25T00:57:44.814Z,49.18
2019-01-25T00:58:49.049Z,49.25
2019-01-25T00:59:53.064Z,50.40
2019-01-25T01:00:57.066Z,51.85
2019-01-25T01:02:01.069Z,49.77
2019-01-25T01:03:07.213Z,48.85
2019-01-25T01:04:11.221Z,48.85
2019-01-25T01:05:15.581Z,46.90
2019-01-25T01:06:19.836Z,47.20
2019-01-25T01:07:23.847Z,48.98
2019-01-25T01:08:27.874Z,47.62
2019-01-25T01:09:31.888Z,46.95
2019-01-25T01:10:35.891Z,46.73
2019-01-25T01:11:39.890Z,46.15
2019-01-25T01:12:43.899Z,46.83
2019-01-25T01:13:47.848Z,46.05
2019-01-25T01:14:51.855Z,46.73
2019-01-25T01:15:55.871Z,47.55
2019-01-25T01:16:59.804Z,47.30
2019-01-25T01:18:03.918Z,47.23
2019-01-25T01:19:08.046Z,47.55
2019-01-25T01:20:13.988Z,46.50
2019-01-25T01:21:18.237Z,46.23
2019-01-25T01:22:22.337Z,46.60
2019-01-25T01:23:26.355Z,46.10
2019-01-25T01:24:30.385Z,46.73
2019-01-25T01:25:34.609Z,46.65
2019-01-25T01:26:38.624Z,45.73
2019-01-25T01:27:42.761Z,47.73
2019-01-25T01:28:46.717Z,44.53
2019-01-25T01:29:50.777Z,45.85
2019-01-25T01:30:55.161Z,46.90
2019-01-25T01:31:59.166Z,47.70
2019-01-25T01:33:03.170Z,47.00
2019-01-25T01:34:07.182Z,47.17
2019-01-25T01:35:11.191Z,47.40
2019-01-25T01:36:15.191Z,46.83
2019-01-25T01:37:19.206Z,45.73
2019-01-25T01:38:23.485Z,44.98
2019-01-25T01:39:27.510Z,44.45
2019-01-25T01:40:31.780Z,43.40
2019-01-25T01:41:35.790Z,45.08
2019-01-25T01:42:39.801Z,44.00
2019-01-25T01:43:43.900Z,41.42
2019-01-25T01:44:47.951Z,42.03
2019-01-25T01:45:51.998Z,42.78
2019-01-25T01:46:56.022Z,43.58
2019-01-25T01:48:00.330Z,42.33
2019-01-25T01:49:04.627Z,41.65
2019-01-25T01:50:10.580Z,42.13
2019-01-25T01:51:14.950Z,42.70
2019-01-25T01:52:19.270Z,42.43
2019-01-25T01:53:23.285Z,43.20
2019-01-25T01:54:27.677Z,41.08
2019-01-25T01:55:31.695Z,42.05
2019-01-25T01:56:35.687Z,38.48
2019-01-25T01:57:39.771Z,42.53
2019-01-25T01:58:43.783Z,39.95
2019-01-25T01:59:47.894Z,39.75
2019-01-25T02:00:51.911Z,41.15
2019-01-25T02:01:55.906Z,39.45
2019-01-25T02:03:00.111Z,40.50
2019-01-25T02:04:04.592Z,40.52
2019-01-25T02:05:09.208Z,40.35
2019-01-25T02:06:13.293Z,41.10
2019-01-25T02:07:17.345Z,40.20
2019-01-25T02:08:21.365Z,40.33
2019-01-25T02:09:25.390Z,39.88
2019-01-25T02:10:29.882Z,39.63
2019-01-25T02:11:33.925Z,39.78
2019-01-25T02:12:38.266Z,40.55
2019-01-25T02:13:42.214Z,40.35
2019-01-25T02:14:46.232Z,39.10
2019-01-25T02:15:50.258Z,39.20
2019-01-25T02:16:54.270Z,40.33
2019-01-25T02:17:58.278Z,39.78
2019-01-25T02:19:02.337Z,40.65
2019-01-25T02:20:07.809Z,41.55
2019-01-25T02:21:12.835Z,41.40
2019-01-25T02:22:16.853Z,42.45
2019-01-25T02:23:20.869Z,41.45
2019-01-25T02:24:24.816Z,42.88
2019-01-25T02:25:28.837Z,43.60
2019-01-25T02:26:32.902Z,42.67
2019-01-25T02:27:36.934Z,40.03
2019-01-25T02:28:41.287Z,40.83
2019-01-25T02:29:45.242Z,42.33
2019-01-25T02:30:49.277Z,39.90
2019-01-25T02:31:53.536Z,40.12
2019-01-25T02:32:57.624Z,41.30
2019-01-25T02:34:01.643Z,41.13
2019-01-25T02:35:06.177Z,38.73
2019-01-25T02:36:10.571Z,41.18
2019-01-25T02:37:14.595Z,41.70
2019-01-25T02:38:18.616Z,40.03
2019-01-25T02:39:22.553Z,36.90
2019-01-25T02:40:26.803Z,36.15
2019-01-25T02:41:30.895Z,37.50
2019-01-25T02:42:34.909Z,36.55
2019-01-25T02:43:38.922Z,34.40
2019-01-25T02:44:42.903Z,35.95
2019-01-25T02:45:46.903Z,36.48
2019-01-25T02:46:50.911Z,36.50
2019-01-25T02:47:55.160Z,37.70
2019-01-25T02:48:59.055Z,38.15
2019-01-25T02:50:03.071Z,36.65
2019-01-25T02:51:07.305Z,38.60
2019-01-25T02:52:11.335Z,36.83
2019-01-25T02:53:15.354Z,39.33
2019-01-25T02:54:19.942Z,37.23
2019-01-25T02:55:24.005Z,38.95
2019-01-25T02:56:28.038Z,38.45
2019-01-25T02:57:32.060Z,37.17
2019-01-25T02:58:36.104Z,38.00
2019-01-25T02:59:40.044Z,38.05
2019-01-25T03:00:44.104Z,38.42
2019-01-25T03:01:48.432Z,38.48
2019-01-25T03:02:53.033Z,38.02
2019-01-25T03:03:57.073Z,37.35
2019-01-25T03:05:01.077Z,36.38
2019-01-25T03:06:05.093Z,36.40
2019-01-25T03:07:09.107Z,34.88
2019-01-25T03:08:13.038Z,36.50
2019-01-25T03:09:17.042Z,33.70
2019-01-25T03:10:28.242Z,33.73
2019-01-25T03:11:27.133Z,33.92
2019-01-25T03:12:31.403Z,34.90
2019-01-25T03:13:35.411Z,34.65
2019-01-25T03:14:39.420Z,33.15
2019-01-25T03:15:43.425Z,34.95
2019-01-25T03:16:47.428Z,35.30
2019-01-25T03:17:51.451Z,35.73
2019-01-25T03:18:55.560Z,33.53
2019-01-25T03:19:59.493Z,32.40
2019-01-25T03:21:05.022Z,32.35
2019-01-25T03:22:09.074Z,33.58
2019-01-25T03:23:13.102Z,34.95
2019-01-25T03:24:17.110Z,34.85
2019-01-25T03:25:23.443Z,34.13
2019-01-25T03:26:27.441Z,34.58
2019-01-25T03:27:31.478Z,35.15
2019-01-25T03:28:35.495Z,34.27
2019-01-25T03:29:39.737Z,34.85
2019-01-25T03:30:44.040Z,34.33
2019-01-25T03:31:48.059Z,34.75
2019-01-25T03:32:52.083Z,36.08
2019-01-25T03:33:56.339Z,35.08
2019-01-25T03:35:00.437Z,36.65
2019-01-25T03:36:04.392Z,35.68
2019-01-25T03:37:08.458Z,36.73
2019-01-25T03:38:12.453Z,38.88
2019-01-25T03:39:16.401Z,43.08
2019-01-25T03:40:23.067Z,42.48
2019-01-25T03:41:27.088Z,42.48
2019-01-25T03:42:30.961Z,42.13
2019-01-25T03:43:34.921Z,43.05
2019-01-25T03:44:38.932Z,42.53
2019-01-25T03:45:43.320Z,43.20
2019-01-25T03:46:47.280Z,44.88
2019-01-25T03:47:51.304Z,45.33
2019-01-25T03:48:55.348Z,43.98
2019-01-25T03:49:59.958Z,43.92
2019-01-25T03:51:03.927Z,40.95
2019-01-25T03:52:08.064Z,43.13
2019-01-25T03:53:12.028Z,45.10
2019-01-25T03:54:16.054Z,43.58
2019-01-25T03:55:20.073Z,44.95
2019-01-25T03:56:24.084Z,43.02
2019-01-25T03:57:28.100Z,44.03
2019-01-25T03:58:32.502Z,42.55
2019-01-25T03:59:36.870Z,41.98
2019-01-25T04:00:40.889Z,42.88
2019-01-25T04:01:45.181Z,43.38
2019-01-25T04:02:49.464Z,41.90
2019-01-25T04:03:53.493Z,41.80
2019-01-25T04:04:57.506Z,42.73
2019-01-25T04:06:01.562Z,41.53
2019-01-25T04:07:05.962Z,43.50
2019-01-25T04:08:10.228Z,43.58
2019-01-25T04:09:14.516Z,40.52
2019-01-25T04:10:20.717Z,41.28
2019-01-25T04:11:24.767Z,41.77
2019-01-25T04:12:28.846Z,42.60
2019-01-25T04:13:33.184Z,43.05
2019-01-25T04:14:37.204Z,43.45
2019-01-25T04:15:41.223Z,42.62
2019-01-25T04:16:45.351Z,44.60
2019-01-25T04:17:49.458Z,44.38
2019-01-25T04:18:53.500Z,43.58
2019-01-25T04:19:57.520Z,43.60
2019-01-25T04:21:01.573Z,42.43
2019-01-25T04:22:06.097Z,44.55
2019-01-25T04:23:10.110Z,43.65
2019-01-25T04:24:14.146Z,42.15
2019-01-25T04:25:20.179Z,41.68
2019-01-25T04:26:24.193Z,43.08
2019-01-25T04:27:28.219Z,42.17
2019-01-25T04:28:32.245Z,40.95
2019-01-25T04:29:36.205Z,42.25
2019-01-25T04:30:40.218Z,40.88
2019-01-25T04:31:44.171Z,39.65
2019-01-25T04:32:48.352Z,40.30
2019-01-25T04:33:52.580Z,41.20
2019-01-25T04:34:56.530Z,40.33
2019-01-25T04:36:00.556Z,41.05
2019-01-25T04:37:04.891Z,42.05
2019-01-25T04:38:08.917Z,39.38
2019-01-25T04:39:12.989Z,40.73
2019-01-25T04:40:17.225Z,40.25
2019-01-25T04:41:21.187Z,40.75
2019-01-25T04:42:25.198Z,39.30
2019-01-25T04:43:29.196Z,38.33
2019-01-25T04:44:33.214Z,41.20
2019-01-25T04:45:37.384Z,38.95
2019-01-25T04:46:41.717Z,39.98
2019-01-25T04:47:45.836Z,34.98
2019-01-25T04:48:49.839Z,36.13
2019-01-25T04:49:53.846Z,34.85
2019-01-25T04:50:57.786Z,35.03
2019-01-25T04:52:01.693Z,35.35
2019-01-25T04:53:05.963Z,36.05
2019-01-25T04:54:09.970Z,34.23
2019-01-25T04:55:25.379Z,34.40
2019-01-25T04:56:32.235Z,32.98
2019-01-25T04:57:36.173Z,33.55
2019-01-25T04:58:40.420Z,35.83
2019-01-25T04:59:44.428Z,33.90
2019-01-25T05:00:48.498Z,41.60
2019-01-25T05:01:52.507Z,41.40
2019-01-25T05:02:58.436Z,38.58
2019-01-25T05:04:02.551Z,40.30
2019-01-25T05:05:07.474Z,41.15
2019-01-25T05:06:14.655Z,41.25
2019-01-25T05:07:18.654Z,41.05
2019-01-25T05:08:23.122Z,41.02
2019-01-25T05:09:27.128Z,41.37
2019-01-25T05:10:31.183Z,39.67
2019-01-25T05:11:35.187Z,39.42
2019-01-25T05:12:39.452Z,40.25
2019-01-25T05:13:43.495Z,40.10
2019-01-25T05:14:47.571Z,40.20
2019-01-25T05:15:51.597Z,40.20
2019-01-25T05:16:55.919Z,38.58
2019-01-25T05:17:59.944Z,39.63
2019-01-25T05:19:04.377Z,40.08
2019-01-25T05:20:08.843Z,40.73
2019-01-25T05:21:21.167Z,40.98
2019-01-25T05:22:25.495Z,40.00
2019-01-25T05:23:29.577Z,39.23
2019-01-25T05:24:33.806Z,39.20
2019-01-25T05:25:37.825Z,39.38
2019-01-25T05:26:41.944Z,39.53
2019-01-25T05:27:45.905Z,39.78
2019-01-25T05:28:50.004Z,39.50
2019-01-25T05:29:55.816Z,38.35
2019-01-25T05:31:05.316Z,40.88
2019-01-25T05:32:09.327Z,38.35
2019-01-25T05:33:13.270Z,39.03
2019-01-25T05:34:17.135Z,39.90
2019-01-25T05:35:21.437Z,39.73
2019-01-25T05:36:25.464Z,40.52
2019-01-25T05:37:29.490Z,41.18
2019-01-25T05:38:33.521Z,43.75
2019-01-25T05:39:37.464Z,44.25
2019-01-25T05:40:41.491Z,42.10
2019-01-25T05:41:50.140Z,41.95
2019-01-25T05:42:54.716Z,39.13
2019-01-25T05:43:59.024Z,39.98
2019-01-25T05:45:09.705Z,40.88
2019-01-25T05:46:13.665Z,36.98
2019-01-25T05:47:17.678Z,38.02
2019-01-25T05:48:29.056Z,39.45
2019-01-25T05:49:33.061Z,37.98
2019-01-25T05:50:37.134Z,37.25
2019-01-25T05:51:41.169Z,40.40
2019-01-25T05:52:45.288Z,38.33
2019-01-25T05:53:53.281Z,39.03
2019-01-25T05:54:57.309Z,38.80
2019-01-25T05:56:01.276Z,37.95
2019-01-25T05:57:05.673Z,38.55
2019-01-25T05:58:10.898Z,39.23
2019-01-25T05:59:16.456Z,38.67
2019-01-25T06:00:26.095Z,37.80
2019-01-25T06:01:30.439Z,37.28
2019-01-25T06:02:34.789Z,38.13
2019-01-25T06:03:39.059Z,37.60
2019-01-25T06:04:43.403Z,37.63
2019-01-25T06:05:47.712Z,37.38
2019-01-25T06:06:52.021Z,37.60
2019-01-25T06:07:55.959Z,37.70
2019-01-25T06:08:59.973Z,37.42
2019-01-25T06:10:04.525Z,37.70
2019-01-25T06:11:12.148Z,36.60
2019-01-25T06:12:16.343Z,37.53
2019-01-25T06:13:20.289Z,35.73
2019-01-25T06:14:24.304Z,34.43
2019-01-25T06:15:30.624Z,34.88
2019-01-25T06:16:35.196Z,34.50
2019-01-25T06:17:39.408Z,37.50
2019-01-25T06:18:43.711Z,37.08
2019-01-25T06:19:47.782Z,35.50
2019-01-25T06:20:55.626Z,35.55
2019-01-25T06:21:59.665Z,35.60
2019-01-25T06:23:03.684Z,36.68
2019-01-25T06:24:07.700Z,37.40
2019-01-25T06:25:12.076Z,35.75
2019-01-25T06:26:16.092Z,38.63
2019-01-25T06:27:20.469Z,36.65
2019-01-25T06:28:24.614Z,36.15
2019-01-25T06:29:33.505Z,37.42
2019-01-25T06:30:37.750Z,36.28
2019-01-25T06:31:41.768Z,35.65
2019-01-25T06:32:46.022Z,35.65
2019-01-25T06:33:50.041Z,33.95
2019-01-25T06:34:54.040Z,34.75
2019-01-25T06:35:58.050Z,34.98
2019-01-25T06:37:02.294Z,34.40
2019-01-25T06:38:06.312Z,35.20
2019-01-25T06:39:10.628Z,37.63
2019-01-25T06:40:14.880Z,36.45
2019-01-25T06:41:19.038Z,39.20
2019-01-25T06:42:23.049Z,37.53
2019-01-25T06:43:27.064Z,38.28
2019-01-25T06:44:30.994Z,36.63
2019-01-25T06:45:35.259Z,36.68
2019-01-25T06:46:39.192Z,36.98
2019-01-25T06:47:43.297Z,36.75
2019-01-25T06:48:47.394Z,34.35
2019-01-25T06:49:51.715Z,34.45
2019-01-25T06:50:55.735Z,34.92
2019-01-25T06:52:00.026Z,33.90
2019-01-25T06:53:06.088Z,35.65
2019-01-25T06:54:10.380Z,35.05
2019-01-25T06:55:14.947Z,35.55
2019-01-25T06:56:18.989Z,34.33
2019-01-25T06:57:42.087Z,34.10
2019-01-25T06:58:52.343Z,34.48
2019-01-25T06:59:56.297Z,33.95
2019-01-25T07:01:22.328Z,34.30
2019-01-25T07:02:36.455Z,34.30
2019-01-25T07:03:40.484Z,35.15
2019-01-25T07:04:44.500Z,35.35
2019-01-25T07:05:48.439Z,34.58
2019-01-25T07:06:52.901Z,37.28
2019-01-25T07:07:56.840Z,36.73
2019-01-25T07:09:00.785Z,37.15
2019-01-25T07:10:07.457Z,36.53
2019-01-25T07:11:11.471Z,35.98
2019-01-25T07:12:15.482Z,34.55
2019-01-25T07:13:19.737Z,35.48
2019-01-25T07:14:23.784Z,34.95
2019-01-25T07:15:27.868Z,34.70
2019-01-25T07:16:31.912Z,35.60
2019-01-25T07:17:36.211Z,33.75
2019-01-25T07:18:40.229Z,35.35
2019-01-25T07:19:44.177Z,34.43
2019-01-25T07:20:48.185Z,35.28
2019-01-25T07:21:52.175Z,34.38
2019-01-25T07:22:56.419Z,34.92
2019-01-25T07:24:00.474Z,33.33
2019-01-25T07:25:05.755Z,35.05
2019-01-25T07:26:09.780Z,34.95
2019-01-25T07:27:14.035Z,36.05
2019-01-25T07:28:18.058Z,35.70
2019-01-25T07:29:22.054Z,33.73
2019-01-25T07:30:26.104Z,34.95
2019-01-25T07:31:30.264Z,34.48
2019-01-25T07:32:34.335Z,34.53
2019-01-25T07:33:38.413Z,35.30
2019-01-25T07:34:42.375Z,35.23
2019-01-25T07:35:46.366Z,34.45
2019-01-25T07:36:52.024Z,35.38
2019-01-25T07:37:56.138Z,33.88
2019-01-25T07:39:00.469Z,35.50
2019-01-25T07:40:05.026Z,36.25
2019-01-25T07:41:09.058Z,34.35
2019-01-25T07:42:13.393Z,35.20
2019-01-25T07:43:17.802Z,33.60
2019-01-25T07:44:21.837Z,34.80
2019-01-25T07:45:25.853Z,37.20
2019-01-25T07:46:29.860Z,33.85
2019-01-25T07:47:33.877Z,35.10
2019-01-25T07:48:38.033Z,43.75
2019-01-25T07:49:42.019Z,39.67
2019-01-25T07:50:46.465Z,39.10
2019-01-25T07:51:50.465Z,38.48
2019-01-25T07:52:54.461Z,36.30
2019-01-25T07:53:58.505Z,35.58
2019-01-25T07:55:02.727Z,35.10
2019-01-25T07:56:06.944Z,36.68
2019-01-25T07:57:10.954Z,34.83
2019-01-25T07:58:15.281Z,36.42
2019-01-25T07:59:19.208Z,37.00
2019-01-25T08:00:23.265Z,43.68
2019-01-25T08:01:27.290Z,42.00
2019-01-25T08:02:31.277Z,43.08
2019-01-25T08:03:35.565Z,39.42
2019-01-25T08:04:39.545Z,42.43
2019-01-25T08:05:43.555Z,41.05
2019-01-25T08:06:47.581Z,40.17
2019-01-25T08:07:51.799Z,37.90
2019-01-25T08:08:55.801Z,40.98
2019-01-25T08:10:00.584Z,43.98
2019-01-25T08:11:04.795Z,40.78
2019-01-25T08:12:08.923Z,43.92
2019-01-25T08:13:12.930Z,41.23
2019-01-25T08:14:17.025Z,41.58
2019-01-25T08:15:22.753Z,59.58
2019-01-25T08:16:27.053Z,48.87
2019-01-25T08:17:31.349Z,46.28
2019-01-25T08:18:35.368Z,44.13
2019-01-25T08:19:39.789Z,43.28
2019-01-25T08:20:44.203Z,40.33
2019-01-25T08:21:48.583Z,38.63
2019-01-25T08:22:52.614Z,37.55
2019-01-25T08:23:56.854Z,38.67
2019-01-25T08:25:01.156Z,37.25
2019-01-25T08:26:05.203Z,38.78
2019-01-25T08:27:09.233Z,39.95
2019-01-25T08:28:13.268Z,38.58
2019-01-25T08:29:17.295Z,38.98
2019-01-25T08:30:21.405Z,38.25
2019-01-25T08:31:25.374Z,38.50
2019-01-25T08:32:29.378Z,36.55
2019-01-25T08:33:33.368Z,42.00
2019-01-25T08:34:37.389Z,36.10
2019-01-25T08:35:41.404Z,34.83
2019-01-25T08:36:45.570Z,36.65
2019-01-25T08:37:49.573Z,35.63
2019-01-25T08:38:53.995Z,37.70
2019-01-25T08:39:57.997Z,36.40
2019-01-25T08:41:02.033Z,34.58
2019-01-25T08:42:06.024Z,34.83
2019-01-25T08:43:10.205Z,34.50
2019-01-25T08:44:14.454Z,34.80
2019-01-25T08:45:18.794Z,34.25
2019-01-25T08:46:22.799Z,37.60
2019-01-25T08:47:26.830Z,36.77
2019-01-25T08:48:31.061Z,36.08
2019-01-25T08:49:35.297Z,37.90
2019-01-25T08:50:39.334Z,38.13
2019-01-25T08:51:43.307Z,38.53
2019-01-25T08:52:47.334Z,37.20
2019-01-25T08:53:51.373Z,37.13
2019-01-25T08:54:55.677Z,38.58
2019-01-25T08:55:59.658Z,36.85
2019-01-25T08:57:03.668Z,36.93
2019-01-25T08:58:07.682Z,33.78
2019-01-25T08:59:11.981Z,34.25
2019-01-25T09:00:20.634Z,35.10
2019-01-25T09:01:25.026Z,34.20
2019-01-25T09:02:29.038Z,34.03
2019-01-25T09:03:33.046Z,35.08
2019-01-25T09:04:37.334Z,35.92
2019-01-25T09:05:41.354Z,34.55
2019-01-25T09:06:45.378Z,32.93
2019-01-25T09:07:49.514Z,36.70
2019-01-25T09:08:53.747Z,34.95
2019-01-25T09:09:57.782Z,38.28
2019-01-25T09:11:01.775Z,34.88
2019-01-25T09:12:05.828Z,34.63
2019-01-25T09:13:09.841Z,33.92
2019-01-25T09:14:13.856Z,33.50
2019-01-25T09:15:20.648Z,33.63
2019-01-25T09:16:24.992Z,33.53
2019-01-25T09:17:29.647Z,33.05
2019-01-25T09:18:33.956Z,32.60
2019-01-25T09:19:37.903Z,31.10
2019-01-25T09:20:41.979Z,32.00
2019-01-25T09:21:46.023Z,32.03
2019-01-25T09:22:50.034Z,33.55
2019-01-25T09:23:54.046Z,32.08
2019-01-25T09:24:58.064Z,32.10
2019-01-25T09:26:02.101Z,30.45
2019-01-25T09:27:06.307Z,30.57
2019-01-25T09:28:10.571Z,30.65
2019-01-25T09:29:14.984Z,30.68
2019-01-25T09:30:21.087Z,117.08
2019-01-25T09:31:25.099Z,57.23
2019-01-25T09:32:29.124Z,36.85
2019-01-25T09:33:33.491Z,38.45
2019-01-25T09:34:37.507Z,43.87
2019-01-25T09:35:41.859Z,48.98
2019-01-25T09:36:45.875Z,39.33
2019-01-25T09:37:51.700Z,33.55
2019-01-25T09:38:55.713Z,31.87
2019-01-25T09:39:59.662Z,32.17
2019-01-25T09:41:04.131Z,30.17
2019-01-25T09:42:08.138Z,29.18
2019-01-25T09:43:12.167Z,30.85
2019-01-25T09:44:16.176Z,33.15
2019-01-25T09:45:20.755Z,31.23
2019-01-25T09:46:24.767Z,36.05
2019-01-25T09:47:28.730Z,36.15
2019-01-25T09:48:32.762Z,32.33
2019-01-25T09:49:36.818Z,46.23
2019-01-25T09:50:40.883Z,36.88
2019-01-25T09:51:45.148Z,53.55
2019-01-25T09:52:49.197Z,42.93
2019-01-25T09:53:53.206Z,36.75
2019-01-25T09:54:57.562Z,33.58
2019-01-25T09:56:01.580Z,34.43
2019-01-25T09:57:06.195Z,32.42
2019-01-25T09:58:12.460Z,33.10
2019-01-25T09:59:16.472Z,31.93
2019-01-25T10:00:32.384Z,32.00
2019-01-25T10:01:36.383Z,32.10
2019-01-25T10:02:40.243Z,30.60
2019-01-25T10:03:44.501Z,30.92
2019-01-25T10:04:48.509Z,33.98
2019-01-25T10:05:52.521Z,32.65
2019-01-25T10:06:56.531Z,33.38
2019-01-25T10:08:00.536Z,33.35
2019-01-25T10:09:07.671Z,35.28
2019-01-25T10:10:12.144Z,35.05
2019-01-25T10:11:16.148Z,33.65
2019-01-25T10:12:20.074Z,34.85
2019-01-25T10:13:24.020Z,35.58
2019-01-25T10:14:28.261Z,32.70
2019-01-25T10:15:32.276Z,34.00
2019-01-25T10:16:36.401Z,32.30
2019-01-25T10:17:40.401Z,32.83
2019-01-25T10:18:44.590Z,34.00
2019-01-25T10:19:48.596Z,32.08
2019-01-25T10:20:52.694Z,32.42
2019-01-25T10:21:56.626Z,32.93
2019-01-25T10:23:00.630Z,34.10
2019-01-25T10:24:06.423Z,34.23
2019-01-25T10:25:10.690Z,33.38
2019-01-25T10:26:14.630Z,33.20
2019-01-25T10:27:18.558Z,33.05
2019-01-25T10:28:22.583Z,33.83
2019-01-25T10:29:26.614Z,34.92
2019-01-25T10:30:30.626Z,34.25
2019-01-25T10:31:34.646Z,34.92
2019-01-25T10:32:38.653Z,34.35
2019-01-25T10:33:42.685Z,34.00
2019-01-25T10:34:46.995Z,32.95
2019-01-25T10:35:51.431Z,32.80
2019-01-25T10:36:55.511Z,32.80
2019-01-25T10:37:59.519Z,35.00
2019-01-25T10:39:05.353Z,35.15
2019-01-25T10:40:12.690Z,34.95
2019-01-25T10:41:16.701Z,36.68
2019-01-25T10:42:20.765Z,34.67
2019-01-25T10:43:24.812Z,34.70
2019-01-25T10:44:28.844Z,35.63
2019-01-25T10:45:34.911Z,35.03
2019-01-25T10:46:38.940Z,33.40
2019-01-25T10:47:42.939Z,35.20
2019-01-25T10:48:46.987Z,36.13
2019-01-25T10:49:50.995Z,35.33
2019-01-25T10:50:55.013Z,32.55
2019-01-25T10:51:59.024Z,34.65
2019-01-25T10:53:03.034Z,35.50
2019-01-25T10:54:08.541Z,36.15
2019-01-25T10:55:13.172Z,35.20
2019-01-25T10:56:17.116Z,35.30
2019-01-25T10:57:21.140Z,35.28
2019-01-25T10:58:25.156Z,35.73
2019-01-25T10:59:29.190Z,34.70
2019-01-25T11:00:33.779Z,35.08
2019-01-25T11:01:37.811Z,36.25
2019-01-25T11:02:41.837Z,37.17
2019-01-25T11:03:46.755Z,35.92
2019-01-25T11:04:50.799Z,36.20
2019-01-25T11:05:54.816Z,35.52
2019-01-25T11:06:58.782Z,36.05
2019-01-25T11:08:02.807Z,35.85
2019-01-25T11:09:09.175Z,34.58
2019-01-25T11:10:13.398Z,34.25
2019-01-25T11:11:17.407Z,35.43
2019-01-25T11:12:21.424Z,37.17
2019-01-25T11:13:25.687Z,35.70
2019-01-25T11:14:29.698Z,34.73
2019-01-25T11:15:34.190Z,37.53
2019-01-25T11:16:38.539Z,36.38
2019-01-25T11:17:42.559Z,36.30
2019-01-25T11:18:47.130Z,39.00
2019-01-25T11:19:51.302Z,37.95
2019-01-25T11:20:55.313Z,36.23
2019-01-25T11:21:59.325Z,34.98
2019-01-25T11:23:03.268Z,36.77
2019-01-25T11:24:08.001Z,37.80
2019-01-25T11:25:15.389Z,36.38
2019-01-25T11:26:19.396Z,37.90
2019-01-25T11:27:23.416Z,36.80
2019-01-25T11:28:27.424Z,36.05
2019-01-25T11:29:31.676Z,37.05
2019-01-25T11:30:36.145Z,38.00
2019-01-25T11:31:40.003Z,36.55
2019-01-25T11:32:44.016Z,39.23
2019-01-25T11:33:47.875Z,38.13
2019-01-25T11:34:51.961Z,39.25
2019-01-25T11:35:55.979Z,35.38
2019-01-25T11:37:00.232Z,37.85
2019-01-25T11:38:04.244Z,48.65
2019-01-25T11:39:10.170Z,37.80
2019-01-25T11:40:25.687Z,40.73
2019-01-25T11:41:29.704Z,43.02
2019-01-25T11:42:33.716Z,41.70
2019-01-25T11:43:38.042Z,39.90
2019-01-25T11:44:42.103Z,41.85
2019-01-25T11:45:46.076Z,39.78
2019-01-25T11:46:50.084Z,38.78
2019-01-25T11:47:54.530Z,40.67
2019-01-25T11:48:58.548Z,36.25
2019-01-25T11:50:02.557Z,37.88
2019-01-25T11:51:06.831Z,36.90
2019-01-25T11:52:10.842Z,36.05
2019-01-25T11:53:15.097Z,37.28
2019-01-25T11:54:19.112Z,36.88
2019-01-25T11:55:23.361Z,37.90
2019-01-25T11:56:27.303Z,38.10
2019-01-25T11:57:31.473Z,39.27
2019-01-25T11:58:35.485Z,37.20
2019-01-25T11:59:39.792Z,35.40
2019-01-25T12:00:45.797Z,37.40
2019-01-25T12:01:49.929Z,37.45
2019-01-25T12:02:54.291Z,37.78
2019-01-25T12:03:58.321Z,38.13
2019-01-25T12:05:02.582Z,39.23
2019-01-25T12:06:07.051Z,35.30
2019-01-25T12:07:11.438Z,42.53
2019-01-25T12:08:16.240Z,40.95
2019-01-25T12:09:20.353Z,39.15
2019-01-25T12:10:26.524Z,36.93
2019-01-25T12:11:30.845Z,36.45
2019-01-25T12:12:34.711Z,37.28
2019-01-25T12:13:38.962Z,38.30
2019-01-25T12:14:43.160Z,36.15
2019-01-25T12:15:47.223Z,35.78
2019-01-25T12:16:51.304Z,34.35
2019-01-25T12:17:55.691Z,35.63
2019-01-25T12:18:59.781Z,36.80
2019-01-25T12:20:05.161Z,35.08
2019-01-25T12:21:09.589Z,33.83
2019-01-25T12:22:13.627Z,35.40
2019-01-25T12:23:18.025Z,35.85
2019-01-25T12:24:22.039Z,36.33
2019-01-25T12:25:26.136Z,34.15
2019-01-25T12:26:30.507Z,35.00
2019-01-25T12:27:34.907Z,34.40
2019-01-25T12:28:38.846Z,35.45
2019-01-25T12:29:42.891Z,33.88
2019-01-25T12:30:46.911Z,34.65
2019-01-25T12:31:50.949Z,36.13
2019-01-25T12:32:55.017Z,35.43
2019-01-25T12:33:59.037Z,38.05
2019-01-25T12:35:07.218Z,36.73
2019-01-25T12:36:09.066Z,34.90
2019-01-25T12:37:12.946Z,35.98
2019-01-25T12:38:16.998Z,36.50
2019-01-25T12:39:21.028Z,37.55
2019-01-25T12:40:25.045Z,33.78
2019-01-25T12:41:29.077Z,34.38
2019-01-25T12:42:33.106Z,36.63
2019-01-25T12:43:37.152Z,34.35
2019-01-25T12:44:41.220Z,35.68
2019-01-25T12:45:50.094Z,36.03
2019-01-25T12:46:51.326Z,36.70
2019-01-25T12:47:55.616Z,37.13
2019-01-25T12:48:59.544Z,37.17
2019-01-25T12:50:03.795Z,36.30
2019-01-25T12:51:26.917Z,37.65
2019-01-25T12:52:31.644Z,35.00
2019-01-25T12:53:35.660Z,35.20
2019-01-25T12:54:39.961Z,36.90
2019-01-25T12:55:44.004Z,36.03
2019-01-25T12:56:48.313Z,34.05
2019-01-25T12:57:53.182Z,35.00
2019-01-25T12:58:57.597Z,37.35
2019-01-25T13:00:02.002Z,37.73
2019-01-25T13:01:06.824Z,37.05
2019-01-25T13:02:11.451Z,38.50
2019-01-25T13:03:15.481Z,36.77
2019-01-25T13:04:19.797Z,40.12
2019-01-25T13:05:24.282Z,39.60
2019-01-25T13:06:28.532Z,39.98
2019-01-25T13:07:32.557Z,37.88
2019-01-25T13:08:36.770Z,35.40
2019-01-25T13:09:40.787Z,37.10
2019-01-25T13:10:44.803Z,37.08
2019-01-25T13:11:49.116Z,36.77
2019-01-25T13:12:53.430Z,32.58
2019-01-25T13:13:57.672Z,36.45
2019-01-25T13:15:04.119Z,37.03
2019-01-25T13:16:09.197Z,37.48
2019-01-25T13:17:13.441Z,41.30
2019-01-25T13:18:18.615Z,37.50
2019-01-25T13:19:22.966Z,36.23
2019-01-25T13:20:27.809Z,36.70
2019-01-25T13:21:31.757Z,35.38
2019-01-25T13:22:36.535Z,36.40
2019-01-25T13:23:42.323Z,43.02
2019-01-25T13:24:47.153Z,40.20
2019-01-25T13:25:52.301Z,44.45
2019-01-25T13:26:56.702Z,40.98
2019-01-25T13:28:02.361Z,38.95
2019-01-25T13:29:06.392Z,33.88
2019-01-25T13:30:14.545Z,36.63
2019-01-25T13:31:19.072Z,35.33
2019-01-25T13:32:25.091Z,34.58
2019-01-25T13:33:29.790Z,35.35
2019-01-25T13:34:34.674Z,34.40
2019-01-25T13:35:39.952Z,34.98
2019-01-25T13:36:44.222Z,34.75
2019-01-25T13:37:49.345Z,35.00
2019-01-25T13:38:53.430Z,32.50
2019-01-25T13:39:57.309Z,32.88
2019-01-25T13:41:01.652Z,42.83
2019-01-25T13:42:06.678Z,34.38
2019-01-25T13:43:10.699Z,36.48
2019-01-25T13:44:15.515Z,33.35
2019-01-25T13:45:19.946Z,31.93
2019-01-25T13:46:24.521Z,33.75
2019-01-25T13:47:30.884Z,35.92
2019-01-25T13:48:34.976Z,34.03
2019-01-25T13:49:39.523Z,32.98
2019-01-25T13:50:44.250Z,31.02